Time;durP1;ratioP1;P1;durP2;ratioP2;P2;SDS_P1;SDS_P2;PMS_P1;PMS_P2;Temp;Humidity;BMP_temperature;BMP_pressure;BME280_temperature;BME280_humidity;BME280_pressure;Samples;Min_cycle;Max_cycle;Signal;HPM_P1;HPM_P2
2021/10/31 00:00:06;;;;;;;15.15;5.25;;;;;;;9.46;100.00;100560.56;5004882;28;20201;-71
2021/10/31 00:02:34;;;;;;;14.82;5.78;;;;;;;9.48;100.00;100569.41;5001177;28;20175;-72
2021/10/31 00:05:04;;;;;;;15.85;5.43;;;;;;;9.49;100.00;100573.78;5005664;28;20052;-71
2021/10/31 00:07:32;;;;;;;16.45;6.40;;;;;;;9.49;100.00;100572.94;5001663;28;20121;-71
2021/10/31 00:10:00;;;;;;;11.10;5.68;;;;;;;9.47;100.00;100565.00;5002152;28;20563;-71
2021/10/31 00:12:27;;;;;;;11.57;5.63;;;;;;;9.41;100.00;100566.97;5005114;28;20060;-71
2021/10/31 00:14:55;;;;;;;14.20;5.65;;;;;;;9.40;100.00;100567.88;5001088;28;20049;-71
2021/10/31 00:17:23;;;;;;;14.50;5.10;;;;;;;9.40;100.00;100567.88;5005581;28;20183;-72
2021/10/31 00:19:51;;;;;;;13.27;5.85;;;;;;;9.36;100.00;100580.44;4999099;28;20118;-71
2021/10/31 00:22:20;;;;;;;14.38;5.93;;;;;;;9.40;100.00;100586.53;5004663;28;20083;-71
2021/10/31 00:24:48;;;;;;;11.98;4.82;;;;;;;9.34;100.00;100587.59;5004948;28;20046;-72
2021/10/31 00:27:15;;;;;;;14.02;5.85;;;;;;;9.31;100.00;100585.03;5002014;28;20053;-72
2021/10/31 00:29:44;;;;;;;12.23;5.35;;;;;;;9.30;100.00;100594.81;5005305;28;20056;-71
2021/10/31 00:32:11;;;;;;;11.18;4.60;;;;;;;9.24;100.00;100592.31;5001778;28;20041;-71
2021/10/31 00:34:39;;;;;;;15.07;5.25;;;;;;;9.28;100.00;100596.66;5004748;28;20054;-71
2021/10/31 00:37:07;;;;;;;13.25;5.35;;;;;;;9.29;100.00;100589.53;5007153;28;20042;-71
2021/10/31 00:39:36;;;;;;;12.43;5.15;;;;;;;9.28;100.00;100591.34;5003492;28;20461;-71
2021/10/31 00:42:04;;;;;;;17.40;4.97;;;;;;;9.25;100.00;100588.75;5003357;28;20519;-67
2021/10/31 00:44:31;;;;;;;20.05;5.88;;;;;;;9.32;100.00;100592.09;5004218;28;20155;-67
2021/10/31 00:46:59;;;;;;;14.63;5.80;;;;;;;9.28;100.00;100590.44;5004850;28;20057;-68
2021/10/31 00:49:27;;;;;;;13.35;5.55;;;;;;;9.25;100.00;100587.88;5001714;28;20048;-68
2021/10/31 00:51:54;;;;;;;15.27;5.13;;;;;;;9.22;100.00;100593.31;5002299;28;20050;-68
2021/10/31 00:54:22;;;;;;;10.40;4.70;;;;;;;9.14;100.00;100604.16;5000777;28;20232;-68
2021/10/31 00:56:51;;;;;;;11.15;5.43;;;;;;;9.14;100.00;100610.38;5003697;28;20498;-67
2021/10/31 00:59:19;;;;;;;14.25;5.50;;;;;;;9.11;100.00;100610.47;4999088;28;20049;-68
2021/10/31 01:01:49;;;;;;;12.73;4.93;;;;;;;9.07;100.00;100611.47;5004237;28;20076;-67
2021/10/31 01:04:20;;;;;;;13.65;5.43;;;;;;;9.03;100.00;100612.47;5004417;28;20161;-68
2021/10/31 01:07:11;;;;;;;15.82;6.25;;;;;;;9.07;100.00;100615.91;5008638;28;20050;-67
2021/10/31 01:09:51;;;;;;;13.90;5.65;;;;;;;9.08;100.00;100623.88;5006732;28;20049;-67
2021/10/31 01:12:38;;;;;;;11.82;5.10;;;;;;;9.03;100.00;100607.16;5005642;28;20132;-72
2021/10/31 01:15:16;;;;;;;12.05;5.47;;;;;;;8.96;100.00;100595.81;5008067;28;20072;-72
2021/10/31 01:17:58;;;;;;;14.10;5.10;;;;;;;9.06;100.00;100603.50;4999596;28;20523;-72
2021/10/31 01:20:37;;;;;;;13.05;5.07;;;;;;;8.99;100.00;100594.88;5005643;28;20045;-72
2021/10/31 01:23:24;;;;;;;9.75;4.70;;;;;;;8.91;100.00;100603.06;5002850;28;20152;-72
2021/10/31 01:26:12;;;;;;;10.65;4.80;;;;;;;8.87;100.00;100601.41;5006765;28;20077;-71
2021/10/31 01:29:00;;;;;;;15.15;5.97;;;;;;;8.90;100.00;100588.00;5000549;28;20064;-71
2021/10/31 01:31:37;;;;;;;13.52;5.35;;;;;;;8.95;100.00;100593.19;5007086;28;20050;-72
2021/10/31 01:34:15;;;;;;;16.23;6.57;;;;;;;8.92;100.00;100593.28;5003268;28;20132;-72
2021/10/31 01:36:55;;;;;;;14.32;6.30;;;;;;;8.87;100.00;100595.19;5007066;28;20172;-72
2021/10/31 01:39:28;;;;;;;16.30;5.57;;;;;;;8.93;100.00;100595.03;5006285;28;20111;-71
2021/10/31 01:42:06;;;;;;;15.10;6.13;;;;;;;8.89;100.00;100591.59;5004388;28;20073;-71
2021/10/31 01:44:43;;;;;;;17.25;6.20;;;;;;;8.89;100.00;100598.72;5004253;28;20539;-72
2021/10/31 01:47:20;;;;;;;14.82;6.10;;;;;;;8.89;100.00;100601.38;5006110;28;20060;-71
2021/10/31 01:49:52;;;;;;;12.38;5.60;;;;;;;8.91;100.00;100597.75;5004026;28;20591;-71
2021/10/31 01:52:25;;;;;;;14.65;5.85;;;;;;;8.89;100.00;100591.59;5006146;28;20952;-67
2021/10/31 01:54:58;;;;;;;11.02;5.35;;;;;;;8.92;100.00;100594.19;5002894;28;20256;-67
2021/10/31 01:57:27;;;;;;;15.00;5.82;;;;;;;8.91;100.00;100610.19;5004045;28;20088;-68
2021/10/31 02:00:02;;;;;;;14.35;6.32;;;;;;;8.90;100.00;100593.31;5007640;28;20056;-67
2021/10/31 02:02:34;;;;;;;12.20;5.82;;;;;;;8.92;100.00;100604.81;5002327;28;20063;-72
2021/10/31 02:05:03;;;;;;;14.02;5.47;;;;;;;8.89;100.00;100602.25;5008889;28;20054;-70
2021/10/31 02:07:32;;;;;;;11.00;5.75;;;;;;;8.82;100.00;100606.00;5002923;28;20045;-67
2021/10/31 02:10:01;;;;;;;13.00;6.05;;;;;;;8.93;100.00;100595.03;5004200;28;20081;-67
2021/10/31 02:12:30;;;;;;;12.98;6.32;;;;;;;8.87;100.00;100604.09;5003689;28;20064;-67
2021/10/31 02:15:01;;;;;;;12.95;5.40;;;;;;;8.90;100.00;100605.75;5005646;28;20053;-67
2021/10/31 02:17:29;;;;;;;12.60;5.32;;;;;;;8.94;100.00;100596.78;5005372;28;20080;-67
2021/10/31 02:19:58;;;;;;;13.85;5.70;;;;;;;8.91;100.00;100591.56;5003926;28;20203;-67
2021/10/31 02:22:30;;;;;;;18.40;6.85;;;;;;;8.97;100.00;100605.56;5006552;28;20150;-67
2021/10/31 02:25:01;;;;;;;12.68;5.95;;;;;;;8.95;100.00;100598.53;4999637;28;20715;-67
2021/10/31 02:27:32;;;;;;;14.20;5.22;;;;;;;8.86;100.00;100599.66;5007330;28;20568;-67
2021/10/31 02:30:02;;;;;;;14.05;6.10;;;;;;;8.87;100.00;100606.75;5004797;28;20056;-67
2021/10/31 02:32:31;;;;;;;15.05;6.15;;;;;;;8.81;100.00;100609.56;5006948;28;20520;-67
2021/10/31 02:35:00;;;;;;;11.30;6.30;;;;;;;8.74;100.00;100602.69;5003853;28;20084;-67
2021/10/31 02:37:29;;;;;;;12.25;5.55;;;;;;;8.77;100.00;100608.78;5004989;28;20049;-67
2021/10/31 02:39:56;;;;;;;15.43;7.03;;;;;;;8.77;100.00;100600.81;5004502;28;20057;-67
2021/10/31 02:42:26;;;;;;;16.65;6.38;;;;;;;8.86;100.00;100588.16;5004167;28;20057;-67
2021/10/31 02:44:53;;;;;;;15.25;6.68;;;;;;;8.91;100.00;100588.91;5004768;28;20248;-67
2021/10/31 02:47:27;;;;;;;13.57;6.57;;;;;;;8.92;100.00;100587.97;5004034;28;20604;-67
2021/10/31 02:49:57;;;;;;;15.80;6.18;;;;;;;8.88;100.00;100586.31;5007972;28;20055;-67
2021/10/31 02:52:45;;;;;;;15.35;5.80;;;;;;;8.85;100.00;100592.59;5000806;28;20719;-67
2021/10/31 02:55:19;;;;;;;14.65;6.13;;;;;;;8.82;100.00;100594.47;5004915;28;20060;-67
2021/10/31 02:57:53;;;;;;;10.90;5.63;;;;;;;8.78;100.00;100591.03;5001157;28;20053;-67
2021/10/31 03:00:21;;;;;;;14.25;6.75;;;;;;;8.81;100.00;100592.75;5004380;28;20049;-67
2021/10/31 03:02:49;;;;;;;15.00;6.13;;;;;;;8.78;100.00;100591.03;5001181;28;20054;-67
2021/10/31 03:05:18;;;;;;;16.02;6.72;;;;;;;8.72;100.00;100589.41;5005150;28;20053;-67
2021/10/31 03:07:45;;;;;;;13.50;6.80;;;;;;;8.76;100.00;100585.75;5000870;28;20115;-67
2021/10/31 03:10:17;;;;;;;12.50;6.70;;;;;;;8.76;100.00;100579.56;5001260;28;20056;-67
2021/10/31 03:12:48;;;;;;;19.88;7.20;;;;;;;8.77;100.00;100570.69;5002034;28;20136;-67
2021/10/31 03:15:17;;;;;;;13.35;6.82;;;;;;;8.69;100.00;100570.88;5001299;28;20080;-67
2021/10/31 03:17:45;;;;;;;17.23;6.63;;;;;;;8.62;100.00;100576.44;5001583;28;20434;-67
2021/10/31 03:20:13;;;;;;;12.60;6.57;;;;;;;8.53;100.00;100570.44;5002375;28;20311;-67
2021/10/31 03:22:41;;;;;;;12.70;6.78;;;;;;;8.61;100.00;100575.53;5003882;28;20057;-67
2021/10/31 03:25:09;;;;;;;16.25;7.72;;;;;;;8.58;100.00;100575.63;5001954;28;20045;-67
2021/10/31 03:27:37;;;;;;;15.82;6.80;;;;;;;8.59;100.00;100580.91;5006249;28;20042;-67
2021/10/31 03:30:06;;;;;;;17.40;6.78;;;;;;;8.56;100.00;100572.13;5002933;28;20275;-67
2021/10/31 03:32:36;;;;;;;13.35;6.00;;;;;;;8.52;100.00;100571.34;5003328;28;20058;-67
2021/10/31 03:35:05;;;;;;;12.50;6.50;;;;;;;8.48;100.00;100567.03;5005194;28;20162;-67
2021/10/31 03:37:33;;;;;;;14.00;6.30;;;;;;;8.45;100.00;100569.78;4997744;28;20053;-67
2021/10/31 03:40:01;;;;;;;17.10;7.50;;;;;;;8.44;100.00;100557.41;5008273;28;20092;-67
2021/10/31 03:42:30;;;;;;;16.13;6.90;;;;;;;8.41;100.00;100560.09;5001714;28;20054;-67
2021/10/31 03:44:58;;;;;;;16.40;7.40;;;;;;;8.40;100.00;100553.06;5003876;28;20305;-67
2021/10/31 03:47:28;;;;;;;20.02;7.93;;;;;;;8.40;100.00;100559.22;5001675;28;20115;-67
2021/10/31 03:49:57;;;;;;;13.48;7.10;;;;;;;8.32;100.00;100565.69;5004200;28;20053;-66
2021/10/31 03:52:25;;;;;;;18.70;7.63;;;;;;;8.34;100.00;100554.09;5004626;28;20541;-67
2021/10/31 03:54:53;;;;;;;17.20;7.53;;;;;;;8.33;100.00;100555.00;4998113;28;20068;-66
2021/10/31 03:57:21;;;;;;;20.00;8.95;;;;;;;8.31;100.00;100562.16;5001556;28;20053;-67
2021/10/31 03:59:48;;;;;;;16.77;7.97;;;;;;;8.26;100.00;100544.56;5002427;28;20097;-66
2021/10/31 04:02:16;;;;;;;19.15;8.82;;;;;;;8.25;100.00;100546.38;5005102;28;20136;-66
2021/10/31 04:04:44;;;;;;;20.10;9.32;;;;;;;8.19;100.00;100552.72;4996685;28;20041;-67
2021/10/31 04:07:13;;;;;;;21.98;10.43;;;;;;;8.24;100.00;100560.59;5003746;28;20050;-66
2021/10/31 04:09:40;;;;;;;18.88;10.90;;;;;;;8.27;100.00;100556.97;4999641;28;20053;-67
2021/10/31 04:12:09;;;;;;;22.55;12.60;;;;;;;8.26;100.00;100552.53;5003569;28;20136;-68
2021/10/31 04:14:37;;;;;;;23.40;12.00;;;;;;;8.25;100.00;100551.69;5003736;28;20350;-66
2021/10/31 04:17:05;;;;;;;24.95;12.75;;;;;;;8.28;100.00;100546.28;5001418;28;20096;-66
2021/10/31 04:19:33;;;;;;;26.85;14.63;;;;;;;8.31;100.00;100529.38;5004817;28;20577;-69
2021/10/31 04:22:00;;;;;;;31.17;14.32;;;;;;;8.35;100.00;100539.00;4997522;28;20513;-66
2021/10/31 04:24:30;;;;;;;29.70;16.08;;;;;;;8.38;100.00;100538.94;5001520;28;20046;-66
2021/10/31 04:26:59;;;;;;;27.20;15.88;;;;;;;8.40;100.00;100547.75;4999648;28;20049;-66
2021/10/31 04:29:27;;;;;;;26.30;14.20;;;;;;;8.41;100.00;100536.16;5004109;28;20379;-66
2021/10/31 04:31:55;;;;;;;29.60;15.23;;;;;;;8.38;100.00;100536.28;5000848;28;20049;-66
2021/10/31 04:34:23;;;;;;;25.60;14.50;;;;;;;8.36;100.00;100532.75;5005414;28;20045;-66
2021/10/31 04:36:52;;;;;;;27.27;14.02;;;;;;;8.31;100.00;100529.38;5010213;28;20081;-67
2021/10/31 04:39:20;;;;;;;25.75;13.43;;;;;;;8.28;100.00;100532.13;5004392;28;20129;-66
2021/10/31 04:41:49;;;;;;;30.20;14.55;;;;;;;8.27;100.00;100541.00;5006029;28;20341;-66
2021/10/31 04:44:34;;;;;;;28.80;14.77;;;;;;;8.28;100.00;100540.09;5003211;28;20077;-66
2021/10/31 04:47:03;;;;;;;26.15;13.52;;;;;;;8.28;100.00;100535.66;5009442;28;20618;-66
2021/10/31 04:49:33;;;;;;;27.42;13.60;;;;;;;8.26;100.00;100532.16;5005371;28;20049;-66
2021/10/31 04:52:01;;;;;;;25.52;13.13;;;;;;;8.25;100.00;100527.75;5008809;28;20490;-66
2021/10/31 04:54:30;;;;;;;23.27;13.10;;;;;;;8.25;100.00;100522.44;5002586;28;20052;-66
2021/10/31 04:57:00;;;;;;;26.63;15.20;;;;;;;8.29;100.00;100517.91;5005903;28;20057;-67
2021/10/31 04:59:27;;;;;;;26.20;14.45;;;;;;;8.25;100.00;100521.56;5006020;28;20810;-66
2021/10/31 05:01:57;;;;;;;29.15;14.52;;;;;;;8.26;100.00;100517.97;5000940;28;20103;-69
2021/10/31 05:04:25;;;;;;;26.15;13.82;;;;;;;8.25;100.00;100517.13;5007999;28;20046;-66
2021/10/31 05:06:53;;;;;;;22.88;13.63;;;;;;;8.19;100.00;100515.50;5005963;28;20052;-66
2021/10/31 05:09:21;;;;;;;26.02;14.35;;;;;;;8.20;100.00;100506.59;5006868;28;20144;-66
2021/10/31 05:11:48;;;;;;;30.67;14.63;;;;;;;8.21;100.00;100516.34;5004318;28;20119;-68
2021/10/31 05:14:17;;;;;;;30.55;15.60;;;;;;;8.22;100.00;100512.78;5004469;28;20053;-68
2021/10/31 05:16:45;;;;;;;25.35;13.18;;;;;;;8.19;100.00;100507.53;5003621;28;20452;-68
2021/10/31 05:19:13;;;;;;;26.33;14.70;;;;;;;8.17;100.00;100500.50;5004456;28;20145;-68
2021/10/31 05:21:41;;;;;;;27.05;13.80;;;;;;;8.19;100.00;100486.28;5008508;28;20057;-68
2021/10/31 05:24:10;;;;;;;24.30;13.95;;;;;;;8.14;100.00;100493.50;5004141;28;20108;-68
2021/10/31 05:26:38;;;;;;;28.30;14.05;;;;;;;8.16;100.00;100496.13;5009408;28;20089;-68
2021/10/31 05:29:06;;;;;;;27.25;14.23;;;;;;;8.16;100.00;100494.34;5004740;28;20147;-68
2021/10/31 05:31:36;;;;;;;27.05;12.77;;;;;;;8.17;100.00;100487.22;5007149;28;20297;-68
2021/10/31 05:34:07;;;;;;;26.05;14.13;;;;;;;8.13;100.00;100485.56;5003422;28;20046;-69
2021/10/31 05:36:37;;;;;;;29.65;13.30;;;;;;;8.14;100.00;100477.56;5005850;28;21491;-68
2021/10/31 05:39:09;;;;;;;26.20;13.20;;;;;;;8.14;100.00;100472.25;5004225;28;20318;-68
2021/10/31 05:41:36;;;;;;;26.27;13.93;;;;;;;8.22;100.00;100480.00;5007397;28;20053;-68
2021/10/31 05:44:07;;;;;;;26.08;13.80;;;;;;;8.19;100.00;100480.97;5008331;28;20445;-67
2021/10/31 05:46:36;;;;;;;24.25;12.88;;;;;;;8.15;100.00;100466.00;5002472;28;20045;-68
2021/10/31 05:49:04;;;;;;;29.35;14.40;;;;;;;8.13;100.00;100472.28;5006848;28;20054;-68
2021/10/31 05:51:32;;;;;;;27.20;13.57;;;;;;;8.14;100.00;100453.63;5003809;28;20057;-68
2021/10/31 05:54:00;;;;;;;28.25;13.10;;;;;;;8.09;100.00;100455.56;5002778;28;20145;-68
2021/10/31 05:56:27;;;;;;;26.58;12.88;;;;;;;8.09;100.00;100466.19;5003988;28;20301;-68
2021/10/31 05:58:55;;;;;;;29.15;12.57;;;;;;;8.08;100.00;100450.28;5004317;28;20141;-71
2021/10/31 06:01:23;;;;;;;26.45;12.48;;;;;;;8.11;100.00;100458.19;5004164;28;20128;-72
2021/10/31 06:03:52;;;;;;;26.92;13.55;;;;;;;8.10;100.00;100451.97;5005014;28;20049;-71
2021/10/31 06:06:23;;;;;;;30.30;13.18;;;;;;;8.10;100.00;100446.66;5006357;28;20046;-71
2021/10/31 06:08:51;;;;;;;26.17;12.57;;;;;;;8.09;100.00;100446.69;5000167;28;20052;-72
2021/10/31 06:11:19;;;;;;;27.70;12.70;;;;;;;8.10;100.00;100446.66;5006321;28;20053;-71
2021/10/31 06:13:47;;;;;;;25.20;11.85;;;;;;;8.14;100.00;100448.31;5002536;28;20058;-72
2021/10/31 06:16:15;;;;;;;24.15;12.05;;;;;;;8.09;100.00;100444.94;5003729;28;20107;-72
2021/10/31 06:18:43;;;;;;;24.83;11.80;;;;;;;8.14;100.00;100440.34;5002409;28;20058;-71
2021/10/31 06:21:12;;;;;;;24.73;11.82;;;;;;;8.11;100.00;100440.44;5003588;28;20050;-70
2021/10/31 06:23:39;;;;;;;31.55;12.90;;;;;;;8.10;100.00;100441.34;4997462;28;20204;-73
2021/10/31 06:26:07;;;;;;;25.25;12.35;;;;;;;8.11;100.00;100427.16;5004093;28;20045;-72
2021/10/31 06:28:35;;;;;;;27.98;11.65;;;;;;;8.08;100.00;100432.53;5006983;28;20064;-72
2021/10/31 06:31:03;;;;;;;32.22;12.45;;;;;;;8.08;100.00;100423.72;5004526;28;20310;-72
2021/10/31 06:33:33;;;;;;;26.92;13.43;;;;;;;8.10;100.00;100428.06;5005935;28;20081;-72
2021/10/31 06:36:00;;;;;;;23.70;11.05;;;;;;;8.16;100.00;100421.72;5000062;28;20085;-71
2021/10/31 06:38:30;;;;;;;27.50;12.75;;;;;;;8.18;100.00;100414.56;5003858;28;20523;-72
2021/10/31 06:40:57;;;;;;;29.23;13.77;;;;;;;8.19;100.00;100411.84;5002441;28;20053;-71
2021/10/31 06:43:26;;;;;;;25.00;11.95;;;;;;;8.20;100.00;100418.03;5005741;28;20435;-71
2021/10/31 06:45:54;;;;;;;25.15;12.40;;;;;;;8.27;100.00;100414.28;5006152;28;20242;-72
2021/10/31 06:48:21;;;;;;;25.60;12.13;;;;;;;8.32;100.00;100416.81;5002020;28;20139;-72
2021/10/31 06:50:51;;;;;;;30.13;13.65;;;;;;;8.29;100.00;100417.78;5005067;28;20136;-72
2021/10/31 06:53:19;;;;;;;24.85;12.30;;;;;;;8.32;100.00;100416.81;4998854;28;20670;-72
2021/10/31 06:55:48;;;;;;;27.05;12.88;;;;;;;8.39;100.00;100413.03;5005223;28;20069;-72
2021/10/31 06:58:16;;;;;;;28.23;13.80;;;;;;;8.44;100.00;100399.66;4999615;28;20144;-71
2021/10/31 07:00:44;;;;;;;23.42;11.75;;;;;;;8.43;100.00;100388.16;5003952;28;20037;-71
2021/10/31 07:03:12;;;;;;;27.85;13.65;;;;;;;8.49;100.00;100389.75;5001559;28;20053;-71
2021/10/31 07:05:39;;;;;;;25.25;12.55;;;;;;;8.48;100.00;100382.69;5005929;28;20426;-72
2021/10/31 07:08:07;;;;;;;27.20;13.63;;;;;;;8.51;100.00;100364.88;5007323;28;20060;-72
2021/10/31 07:10:35;;;;;;;26.15;11.95;;;;;;;8.49;100.00;100360.50;4999946;28;20516;-72
2021/10/31 07:13:04;;;;;;;27.75;12.48;;;;;;;8.55;100.00;100361.19;5007403;28;20065;-72
2021/10/31 07:15:32;;;;;;;27.35;12.57;;;;;;;8.62;100.00;100371.63;5002867;28;20095;-72
2021/10/31 07:18:00;;;;;;;26.98;12.40;;;;;;;8.59;100.00;100368.13;5005417;28;20052;-71
2021/10/31 07:20:30;;;;;;;22.42;11.90;;;;;;;8.67;100.00;100372.38;5003701;28;20626;-72
2021/10/31 07:22:58;;;;;;;33.03;13.77;;;;;;;8.69;100.00;100363.41;5004026;28;20049;-71
2021/10/31 07:25:27;;;;;;;25.42;12.15;;;;;;;8.70;100.00;100365.16;4999853;28;20541;-71
2021/10/31 07:27:56;;;;;;;24.88;12.55;;;;;;;8.71;100.00;100358.03;5006470;28;20050;-71
2021/10/31 07:30:25;;;;;;;28.58;11.98;;;;;;;8.75;100.00;100362.31;5004632;28;20218;-71
2021/10/31 07:32:54;;;;;;;25.63;12.25;;;;;;;8.83;100.00;100370.94;4999729;28;20557;-72
2021/10/31 07:35:22;;;;;;;26.33;12.18;;;;;;;8.83;100.00;100365.63;5005896;28;20081;-72
2021/10/31 07:37:50;;;;;;;27.13;13.98;;;;;;;8.89;100.00;100359.25;4999492;28;20050;-72
2021/10/31 07:40:19;;;;;;;29.85;13.38;;;;;;;8.89;100.00;100359.25;5005077;28;20139;-72
2021/10/31 07:42:46;;;;;;;25.75;11.77;;;;;;;8.94;100.00;100351.97;5002167;28;20049;-72
2021/10/31 07:45:36;;;;;;;22.55;11.52;;;;;;;8.96;100.00;100364.28;5002925;28;20064;-72
2021/10/31 07:48:05;;;;;;;22.35;11.73;;;;;;;9.01;100.00;100358.84;5002794;28;20053;-67
2021/10/31 07:50:35;;;;;;;26.02;12.00;;;;;;;9.03;100.00;100374.75;5006043;28;20050;-67
2021/10/31 07:53:04;;;;;;;25.20;11.55;;;;;;;9.05;100.00;100368.44;5002874;28;20049;-67
2021/10/31 07:55:33;;;;;;;24.98;13.13;;;;;;;9.12;100.00;100374.44;5003527;28;20389;-67
2021/10/31 07:58:03;;;;;;;20.98;11.82;;;;;;;9.15;100.00;100369.88;5007104;28;20057;-67
2021/10/31 08:00:32;;;;;;;26.38;12.38;;;;;;;9.18;100.00;100358.25;5001146;28;20050;-67
2021/10/31 08:03:01;;;;;;;21.25;11.82;;;;;;;9.25;100.00;100356.28;5003116;28;20584;-67
2021/10/31 08:05:29;;;;;;;27.20;12.95;;;;;;;9.30;100.00;100344.53;5001806;28;20520;-67
2021/10/31 08:07:58;;;;;;;26.08;10.88;;;;;;;9.33;100.00;100327.56;5002930;28;20057;-68
2021/10/31 08:10:26;;;;;;;22.02;10.32;;;;;;;9.38;100.00;100324.75;5004685;28;20066;-67
2021/10/31 08:12:53;;;;;;;23.23;10.88;;;;;;;9.47;100.00;100333.28;5008047;28;20697;-67
2021/10/31 08:15:21;;;;;;;18.27;10.13;;;;;;;9.51;100.00;100313.59;5007873;28;20098;-67
2021/10/31 08:17:49;;;;;;;22.02;10.10;;;;;;;9.56;100.00;100317.91;5002731;28;20053;-67
2021/10/31 08:20:18;;;;;;;19.15;10.23;;;;;;;9.61;100.00;100316.81;5009215;28;20140;-67
2021/10/31 08:22:46;;;;;;;19.83;9.05;;;;;;;9.67;100.00;100316.59;5006519;28;20053;-67
2021/10/31 08:25:13;;;;;;;17.65;9.95;;;;;;;9.71;100.00;100310.22;5006977;28;20156;-67
2021/10/31 08:27:41;;;;;;;22.08;9.35;;;;;;;9.82;100.00;100300.94;5004972;28;20429;-67
2021/10/31 08:30:09;;;;;;;18.58;8.85;;;;;;;9.88;100.00;100295.41;5005544;28;20149;-66
2021/10/31 08:32:45;;;;;;;21.05;10.65;;;;;;;9.94;100.00;100299.63;5006353;28;20061;-67
2021/10/31 08:35:13;;;;;;;20.48;9.60;;;;;;;10.01;100.00;100296.69;5006928;28;20068;-67
2021/10/31 08:37:42;;;;;;;17.20;9.40;;;;;;;10.07;100.00;100288.44;5008396;28;20195;-67
2021/10/31 08:40:11;;;;;;;16.98;9.20;;;;;;;10.12;100.00;100280.25;5003331;28;20049;-67
2021/10/31 08:42:41;;;;;;;17.88;8.65;;;;;;;10.19;100.00;100283.56;5007468;28;20512;-67
2021/10/31 08:45:11;;;;;;;16.33;8.52;;;;;;;10.22;100.00;100278.97;5003734;28;20060;-67
2021/10/31 08:47:39;;;;;;;17.85;8.73;;;;;;;10.29;100.00;100277.78;5008217;28;20210;-67
2021/10/31 08:50:09;;;;;;;17.55;9.00;;;;;;;10.40;100.00;100287.19;5003374;28;20137;-67
2021/10/31 08:52:38;;;;;;;16.02;8.75;;;;;;;10.46;100.00;100284.28;5004872;28;20137;-67
2021/10/31 08:55:08;;;;;;;15.13;7.97;;;;;;;10.50;100.00;100293.03;5007354;28;20041;-67
2021/10/31 08:57:36;;;;;;;18.67;9.18;;;;;;;10.54;100.00;100287.53;5004556;28;20041;-67
2021/10/31 09:00:05;;;;;;;17.50;8.55;;;;;;;10.59;100.00;100276.63;5007949;28;20056;-67
2021/10/31 09:02:33;;;;;;;15.90;7.95;;;;;;;10.62;100.00;100256.06;5004313;28;20428;-67
2021/10/31 09:05:01;;;;;;;16.65;8.38;;;;;;;10.70;100.00;100252.19;5008191;28;20046;-68
2021/10/31 09:07:29;;;;;;;15.98;8.60;;;;;;;10.68;100.00;100249.59;5004301;28;20046;-67
2021/10/31 09:09:56;;;;;;;12.98;7.20;;;;;;;10.69;100.00;100248.63;5007101;28;20045;-67
2021/10/31 09:12:25;;;;;;;16.52;7.63;;;;;;;10.74;100.00;100243.97;5003678;28;20648;-67
2021/10/31 09:14:53;;;;;;;14.27;7.53;;;;;;;10.80;100.00;100221.53;5008052;28;20145;-67
2021/10/31 09:17:21;;;;;;;14.02;7.65;;;;;;;10.83;100.00;100224.06;5003724;28;20533;-65
2021/10/31 09:19:49;;;;;;;14.65;7.72;;;;;;;10.80;100.00;100221.53;5006293;28;20046;-68
2021/10/31 09:22:17;;;;;;;14.85;7.65;;;;;;;10.74;100.00;100211.97;5008334;28;20054;-68
2021/10/31 09:24:45;;;;;;;13.05;6.43;;;;;;;10.81;100.00;100220.56;5002912;28;20450;-68
2021/10/31 09:27:13;;;;;;;14.23;7.70;;;;;;;10.78;100.00;100210.91;5006337;28;20497;-67
2021/10/31 09:29:42;;;;;;;13.40;7.30;;;;;;;10.75;100.00;100210.19;5000897;28;20279;-67
2021/10/31 09:32:09;;;;;;;15.27;6.28;;;;;;;10.74;100.00;100198.63;5004243;28;20401;-67
2021/10/31 09:34:37;;;;;;;14.68;7.10;;;;;;;10.74;100.00;100193.28;5003272;28;20577;-67
2021/10/31 09:37:05;;;;;;;11.75;6.90;;;;;;;10.76;100.00;100188.78;5007805;28;20045;-66
2021/10/31 09:39:33;;;;;;;13.25;6.60;;;;;;;10.77;100.00;100173.63;4999293;28;20136;-65
2021/10/31 09:42:01;;;;;;;12.35;6.43;;;;;;;10.80;100.00;100155.66;5006783;28;21454;-67
2021/10/31 09:44:32;;;;;;;13.38;5.90;;;;;;;10.84;100.00;100154.63;5007061;28;20057;-65
2021/10/31 09:47:01;;;;;;;9.80;5.68;;;;;;;10.88;100.00;100149.13;5003644;28;20041;-66
2021/10/31 09:49:30;;;;;;;12.25;6.55;;;;;;;10.89;100.00;100142.84;5010511;28;20179;-66
2021/10/31 09:51:57;;;;;;;10.57;6.30;;;;;;;10.97;100.00;100141.56;5001724;28;20060;-65
2021/10/31 09:54:25;;;;;;;10.38;5.75;;;;;;;11.00;100.00;100129.91;5008184;28;20053;-65
2021/10/31 09:56:53;;;;;;;16.10;6.85;;;;;;;11.13;100.00;100119.53;5002986;28;20050;-67
2021/10/31 09:59:26;;;;;;;11.65;6.20;;;;;;;11.16;100.00;100114.91;5005022;28;20168;-65
2021/10/31 10:02:12;;;;;;;13.35;6.38;;;;;;;11.27;100.00;100110.88;5001431;28;20630;-65
2021/10/31 10:04:49;;;;;;;9.48;5.22;;;;;;;11.28;100.00;100120.63;5005120;28;20493;-65
2021/10/31 10:07:22;;;;;;;13.35;5.55;;;;;;;11.27;100.00;100116.22;5003521;28;20048;-65
2021/10/31 10:09:52;;;;;;;10.55;6.13;;;;;;;11.31;100.00;100129.34;5006241;28;20142;-65
2021/10/31 10:12:21;;;;;;;9.70;5.47;;;;;;;11.33;100.00;100131.97;5007135;28;20049;-65
2021/10/31 10:14:52;;;;;;;11.20;5.50;;;;;;;11.31;100.00;100131.19;5002245;28;20160;-66
2021/10/31 10:17:19;;;;;;;10.55;5.38;;;;;;;11.33;100.00;100124.81;5004014;28;20136;-65
2021/10/31 10:19:52;;;;;;;9.55;4.97;;;;;;;11.34;100.00;100128.34;5001153;28;20054;-65
2021/10/31 10:22:22;;;;;;;10.60;5.32;;;;;;;11.36;100.00;100122.00;5001228;28;20076;-65
2021/10/31 10:24:51;;;;;;;10.02;5.07;;;;;;;11.36;100.00;100105.97;4997598;28;20059;-65
2021/10/31 10:27:21;;;;;;;7.57;4.95;;;;;;;11.44;100.00;100097.63;5000499;28;20121;-65
2021/10/31 10:29:50;;;;;;;9.73;4.97;;;;;;;11.48;100.00;100099.19;4999447;28;20072;-65
2021/10/31 10:32:20;;;;;;;10.25;4.82;;;;;;;11.52;100.00;100081.19;5001393;28;20054;-66
2021/10/31 10:34:52;;;;;;;9.60;4.40;;;;;;;11.56;100.00;100069.41;5006119;28;20513;-65
2021/10/31 10:37:22;;;;;;;8.40;4.50;;;;;;;11.67;100.00;100055.56;4997578;28;20490;-66
2021/10/31 10:39:54;;;;;;;9.02;3.97;;;;;;;11.66;100.00;100040.44;5003678;28;20439;-65
2021/10/31 10:42:23;;;;;;;13.52;4.95;;;;;;;11.64;100.00;100042.34;5002654;28;20157;-66
2021/10/31 10:44:54;;;;;;;9.75;4.35;;;;;;;11.69;100.00;100032.28;5002268;28;20064;-66
2021/10/31 10:47:23;;;;;;;9.52;4.32;;;;;;;11.69;100.00;100029.59;5002759;28;20417;-65
2021/10/31 10:49:55;;;;;;;7.90;3.80;;;;;;;11.77;100.00;100019.41;5001080;28;20153;-68
2021/10/31 10:52:26;;;;;;;7.95;3.92;;;;;;;11.75;100.00;100016.81;4997923;28;20334;-65
2021/10/31 10:55:00;;;;;;;7.20;3.85;;;;;;;11.76;100.00;100005.19;5004247;28;20557;-65
2021/10/31 10:57:31;;;;;;;7.45;4.30;;;;;;;11.77;100.00;100008.72;4999148;28;20052;-65
2021/10/31 11:00:01;;;;;;;8.20;4.00;;;;;;;11.75;100.00;100006.13;5003799;28;20054;-64
2021/10/31 11:02:29;;;;;;;6.25;3.08;;;;;;;11.81;100.00;99990.72;5003476;28;20053;-66
2021/10/31 11:05:03;;;;;;;5.95;3.00;;;;;;;11.87;100.00;99993.94;5000696;28;20358;-66
2021/10/31 11:07:35;;;;;;;7.07;3.08;;;;;;;11.88;100.00;100014.38;5009788;28;20081;-66
2021/10/31 11:10:09;;;;;;;6.07;3.08;;;;;;;11.91;100.00;99995.53;5004891;28;20060;-66
2021/10/31 11:12:39;;;;;;;4.85;2.72;;;;;;;11.93;99.50;100008.84;5005174;28;20057;-66
2021/10/31 11:15:09;;;;;;;4.32;2.50;;;;;;;11.92;99.59;100021.34;5003231;28;20103;-66
2021/10/31 11:17:38;;;;;;;5.50;2.90;;;;;;;11.93;99.42;99999.00;5002568;28;20046;-66
2021/10/31 11:20:11;;;;;;;4.25;2.40;;;;;;;11.99;99.33;99996.97;4999604;28;20056;-66
2021/10/31 11:22:42;;;;;;;6.13;2.60;;;;;;;11.99;98.60;100002.31;5004430;28;20565;-65
2021/10/31 11:25:12;;;;;;;5.97;2.80;;;;;;;11.95;98.83;99993.56;5000869;28;20050;-66